Terminal Aerodrome Forecast
Issued by NWS

Home | Current Version | Previous Version | Text Only | Print | Product List | Glossary On
Versions: 1 2 3 4 5 6 7 8 9 10 11 12 13 14 15 16 17 18 19 20 21 22 23 24 25 26 27 28
000
FTUS44 KOHX 310800 AAA
TAFCKV
TAF AMD
KCKV 310852Z 3109/0106 18004KT 6SM -SHRA SCT009 BKN060
      TEMPO 3110/3114 4SM -SHRA BR BKN009 OVC060
     FM311500 18008KT 6SM -SHRA BR SCT011 OVC020
     FM311700 22008G18KT P6SM OVC020
     FM312200 22008G18KT P6SM OVC050
     FM010000 21006KT P6SM SCT100 BKN250=

USA.gov is the U.S. government's official web portal to all federal, state and local government web resources and services.